createdAt,value
2023-05-10T00:00:31.125Z,0.20
2023-05-10T00:02:58.465Z,0.07
2023-05-10T00:05:25.506Z,0.30
2023-05-10T00:07:52.490Z,0.20
2023-05-10T00:10:19.397Z,0.40
2023-05-10T00:12:46.837Z,0.13
2023-05-10T00:15:14.271Z,0.20
2023-05-10T00:17:41.454Z,0.10
2023-05-10T00:20:08.937Z,0.17
2023-05-10T00:22:35.809Z,0.20
2023-05-10T00:25:02.791Z,0.20
2023-05-10T00:27:29.607Z,0.10
2023-05-10T00:29:56.517Z,0.20
2023-05-10T00:32:23.626Z,0.30
2023-05-10T00:34:50.561Z,0.20
2023-05-10T00:37:17.395Z,0.20
2023-05-10T00:39:44.287Z,0.10
2023-05-10T00:42:11.560Z,0.20
2023-05-10T00:44:38.500Z,0.10
2023-05-10T00:47:05.528Z,0.33
2023-05-10T00:49:32.668Z,0.30
2023-05-10T00:51:59.640Z,0.40
2023-05-10T00:54:26.635Z,0.27
2023-05-10T00:56:53.616Z,0.33
2023-05-10T00:59:20.919Z,0.10
2023-05-10T01:01:48.223Z,0.10
2023-05-10T01:04:16.154Z,0.20
2023-05-10T01:06:43.877Z,0.20
2023-05-10T01:09:12.693Z,0.20
2023-05-10T01:11:40.905Z,0.30
2023-05-10T01:14:08.166Z,0.20
2023-05-10T01:16:39.351Z,0.20
2023-05-10T01:19:27.439Z,0.20
2023-05-10T01:22:01.420Z,0.30
2023-05-10T01:24:43.431Z,0.50
2023-05-10T01:27:31.115Z,0.10
2023-05-10T01:30:44.859Z,0.33
2023-05-10T01:33:32.109Z,0.37
2023-05-10T01:36:30.859Z,0.40
2023-05-10T01:39:22.397Z,0.40
2023-05-10T01:41:55.156Z,0.50
2023-05-10T01:44:35.887Z,0.30
2023-05-10T01:47:27.686Z,0.30
2023-05-10T01:49:56.813Z,0.40
2023-05-10T01:52:37.690Z,0.30
2023-05-10T01:55:12.470Z,0.60
2023-05-10T01:57:43.320Z,0.20
2023-05-10T02:00:11.713Z,0.33
2023-05-10T02:02:40.688Z,0.37
2023-05-10T02:05:08.538Z,0.30
2023-05-10T02:07:37.724Z,0.30
2023-05-10T02:10:10.332Z,0.60
2023-05-10T02:12:42.554Z,0.30
2023-05-10T02:15:11.476Z,0.30
2023-05-10T02:17:39.776Z,0.30
2023-05-10T02:20:08.795Z,0.50
2023-05-10T02:22:37.665Z,0.70
2023-05-10T02:25:05.256Z,0.40
2023-05-10T02:27:32.700Z,0.50
2023-05-10T02:30:00.015Z,0.50
2023-05-10T02:32:28.725Z,0.50
2023-05-10T02:34:56.618Z,0.60
2023-05-10T02:37:24.937Z,0.47
2023-05-10T02:39:55.057Z,0.60
2023-05-10T02:42:27.275Z,0.53
2023-05-10T02:44:57.627Z,0.40
2023-05-10T02:47:24.672Z,0.60
2023-05-10T02:49:51.676Z,0.77
2023-05-10T02:52:25.843Z,0.40
2023-05-10T02:54:57.005Z,0.90
2023-05-10T02:57:28.865Z,0.90
2023-05-10T02:59:56.406Z,1.00
2023-05-10T03:02:23.456Z,0.80
2023-05-10T03:04:50.553Z,0.90
2023-05-10T03:07:20.304Z,0.60
2023-05-10T03:09:47.308Z,0.70
2023-05-10T03:12:30.865Z,0.93
2023-05-10T03:15:22.727Z,0.90
2023-05-10T03:18:23.707Z,0.80
2023-05-10T03:20:55.785Z,0.97
2023-05-10T03:23:35.185Z,0.87
2023-05-10T03:26:03.789Z,0.80
2023-05-10T03:28:32.572Z,0.87
2023-05-10T03:31:00.731Z,0.60
2023-05-10T03:33:27.971Z,0.57
2023-05-10T03:35:54.936Z,0.90
2023-05-10T03:38:21.866Z,0.70
2023-05-10T03:40:48.822Z,0.70
2023-05-10T03:43:15.966Z,0.80
2023-05-10T03:45:42.959Z,0.90
2023-05-10T03:48:10.126Z,1.10
2023-05-10T03:50:37.082Z,1.00
2023-05-10T03:53:04.021Z,0.93
2023-05-10T03:55:49.531Z,0.87
2023-05-10T03:58:36.670Z,0.90
2023-05-10T04:01:23.773Z,0.70
2023-05-10T04:04:06.203Z,1.07
2023-05-10T04:06:33.287Z,0.50
2023-05-10T04:09:01.675Z,0.67
2023-05-10T04:11:28.955Z,0.97
2023-05-10T04:13:55.903Z,0.77
2023-05-10T04:16:22.966Z,0.80
2023-05-10T04:18:49.991Z,0.83
2023-05-10T04:21:16.940Z,0.77
2023-05-10T04:23:43.841Z,1.00
2023-05-10T04:26:11.031Z,0.87
2023-05-10T04:28:38.106Z,0.80
2023-05-10T04:31:09.711Z,1.00
2023-05-10T04:33:37.508Z,0.57
2023-05-10T04:36:04.897Z,0.73
2023-05-10T04:38:31.748Z,0.50
2023-05-10T04:41:09.605Z,0.63
2023-05-10T04:43:37.236Z,1.10
2023-05-10T04:46:04.900Z,0.50
2023-05-10T04:48:32.046Z,0.63
2023-05-10T04:50:59.233Z,0.80
2023-05-10T04:53:26.256Z,0.87
2023-05-10T04:55:53.197Z,0.83
2023-05-10T04:58:20.167Z,0.80
2023-05-10T05:00:47.277Z,0.70
2023-05-10T05:03:14.279Z,1.07
2023-05-10T05:05:41.322Z,0.97
2023-05-10T05:08:08.276Z,1.10
2023-05-10T05:10:35.249Z,1.30
2023-05-10T05:13:02.127Z,1.37
2023-05-10T05:15:29.072Z,1.33
2023-05-10T05:17:56.040Z,1.20
2023-05-10T05:20:23.239Z,0.97
2023-05-10T05:22:50.263Z,1.07
2023-05-10T05:25:17.437Z,0.80
2023-05-10T05:27:44.486Z,1.07
2023-05-10T05:30:12.184Z,0.80
2023-05-10T05:32:39.317Z,0.80
2023-05-10T05:35:06.824Z,0.90
2023-05-10T05:37:33.851Z,0.90
2023-05-10T05:40:02.705Z,0.70
2023-05-10T05:42:29.846Z,0.80
2023-05-10T05:44:56.901Z,0.80
2023-05-10T05:47:26.331Z,1.50
2023-05-10T05:49:53.675Z,1.53
2023-05-10T05:52:20.977Z,1.50
2023-05-10T05:54:48.166Z,0.90
2023-05-10T05:57:15.132Z,1.00
2023-05-10T05:59:44.916Z,1.00
2023-05-10T06:02:12.207Z,1.00
2023-05-10T06:04:39.338Z,1.00
2023-05-10T06:07:06.265Z,0.73
2023-05-10T06:09:33.194Z,1.00
2023-05-10T06:12:00.176Z,0.90
2023-05-10T06:14:27.489Z,0.83
2023-05-10T06:16:54.500Z,0.80
2023-05-10T06:19:21.466Z,0.60
2023-05-10T06:21:48.489Z,1.20
2023-05-10T06:24:15.329Z,0.90
2023-05-10T06:26:42.268Z,0.60
2023-05-10T06:29:09.124Z,1.00
2023-05-10T06:31:36.411Z,0.87
2023-05-10T06:34:03.304Z,1.20
2023-05-10T06:36:30.281Z,1.30
2023-05-10T06:38:57.295Z,1.20
2023-05-10T06:41:24.973Z,1.33
2023-05-10T06:43:53.215Z,1.10
2023-05-10T06:46:20.293Z,1.40
2023-05-10T06:48:47.274Z,0.93
2023-05-10T06:51:14.379Z,1.10
2023-05-10T06:53:41.176Z,1.00
2023-05-10T06:56:08.373Z,1.13
2023-05-10T06:58:35.234Z,0.80
2023-05-10T07:01:06.325Z,0.80
2023-05-10T07:03:33.575Z,0.90
2023-05-10T07:06:04.925Z,0.90
2023-05-10T07:08:32.877Z,0.67
2023-05-10T07:11:04.988Z,0.83
2023-05-10T07:13:33.179Z,0.50
2023-05-10T07:16:01.544Z,0.60
2023-05-10T07:18:29.276Z,0.40
2023-05-10T07:20:57.610Z,0.50
2023-05-10T07:23:24.646Z,0.40
2023-05-10T07:25:53.226Z,0.70
2023-05-10T07:28:21.009Z,0.67
2023-05-10T07:30:47.978Z,0.80
2023-05-10T07:33:16.022Z,0.70
2023-05-10T07:35:44.172Z,0.80
2023-05-10T07:38:12.215Z,0.50
2023-05-10T07:40:40.317Z,0.50
2023-05-10T07:43:07.446Z,0.67
2023-05-10T07:45:35.160Z,0.60
2023-05-10T07:48:02.414Z,0.80
2023-05-10T07:50:29.759Z,0.60
2023-05-10T07:52:57.042Z,0.63
2023-05-10T07:55:23.999Z,0.60
2023-05-10T07:57:50.818Z,0.60
2023-05-10T08:00:20.411Z,0.73
2023-05-10T08:02:48.385Z,0.47
2023-05-10T08:05:15.919Z,0.77
2023-05-10T08:07:43.449Z,0.47
2023-05-10T08:10:12.204Z,0.40
2023-05-10T08:12:39.431Z,0.57
2023-05-10T08:15:07.682Z,0.47
2023-05-10T08:17:34.672Z,0.87
2023-05-10T08:20:01.804Z,0.80
2023-05-10T08:22:29.177Z,0.47
2023-05-10T08:24:56.291Z,0.40
2023-05-10T08:27:23.257Z,0.67
2023-05-10T08:29:50.721Z,0.50
2023-05-10T08:32:18.611Z,0.60
2023-05-10T08:34:45.614Z,0.40
2023-05-10T08:37:14.450Z,0.20
2023-05-10T08:39:41.885Z,0.50
2023-05-10T08:42:10.230Z,0.50
2023-05-10T08:44:37.998Z,0.20
2023-05-10T08:47:09.831Z,0.43
2023-05-10T08:49:38.860Z,0.23
2023-05-10T08:52:08.469Z,0.30
2023-05-10T08:54:35.686Z,0.50
2023-05-10T08:57:03.150Z,0.43
2023-05-10T08:59:30.438Z,0.30
2023-05-10T09:01:59.905Z,0.30
2023-05-10T09:04:27.466Z,0.40
2023-05-10T09:06:55.458Z,0.40
2023-05-10T09:09:22.897Z,0.47
2023-05-10T09:11:50.109Z,0.40
2023-05-10T09:14:18.333Z,0.40
2023-05-10T09:16:45.459Z,0.27
2023-05-10T09:19:12.727Z,0.70
2023-05-10T09:21:39.776Z,0.40
2023-05-10T09:24:08.652Z,0.40
2023-05-10T09:26:36.662Z,1.23
2023-05-10T09:29:04.527Z,0.60
2023-05-10T09:31:48.980Z,0.60
2023-05-10T09:34:20.500Z,0.70
2023-05-10T09:36:55.705Z,0.77
2023-05-10T09:39:34.897Z,0.63
2023-05-10T09:42:07.676Z,0.60
2023-05-10T09:44:35.129Z,0.70
2023-05-10T09:47:03.369Z,0.50
2023-05-10T09:49:30.559Z,0.40
2023-05-10T09:52:09.856Z,0.80
2023-05-10T09:54:37.258Z,0.50
2023-05-10T09:57:04.360Z,0.60
2023-05-10T09:59:33.890Z,0.13
2023-05-10T10:02:01.867Z,0.50
2023-05-10T10:04:29.374Z,0.70
2023-05-10T10:07:01.875Z,0.73
2023-05-10T10:09:29.664Z,0.57
2023-05-10T10:11:57.659Z,0.67
2023-05-10T10:14:25.212Z,0.73
2023-05-10T10:17:06.681Z,0.50
2023-05-10T10:19:38.846Z,0.57
2023-05-10T10:22:06.914Z,0.70
2023-05-10T10:24:34.375Z,0.50
2023-05-10T10:27:13.856Z,0.67
2023-05-10T10:29:53.509Z,1.00
2023-05-10T10:32:36.866Z,0.90
2023-05-10T10:35:05.629Z,0.50
2023-05-10T10:37:51.151Z,0.63
2023-05-10T10:40:28.021Z,0.60
2023-05-10T10:42:56.460Z,0.30
2023-05-10T10:45:24.586Z,0.30
2023-05-10T10:48:21.593Z,0.50
2023-05-10T10:50:48.533Z,0.50
2023-05-10T10:53:15.600Z,0.43
2023-05-10T10:55:49.401Z,0.50
2023-05-10T10:58:35.377Z,0.43
2023-05-10T11:01:16.659Z,0.50
2023-05-10T11:04:03.720Z,0.60
2023-05-10T11:06:35.225Z,0.50
2023-05-10T11:09:13.417Z,0.30
2023-05-10T11:11:52.252Z,0.60
2023-05-10T11:14:23.384Z,0.60
2023-05-10T11:16:50.885Z,0.67
2023-05-10T11:19:19.298Z,0.60
2023-05-10T11:21:52.308Z,0.50
2023-05-10T11:24:27.927Z,0.80
2023-05-10T11:26:55.147Z,0.67
2023-05-10T11:29:22.386Z,0.50
2023-05-10T11:31:50.656Z,0.50
2023-05-10T11:34:32.215Z,0.73
2023-05-10T11:36:59.662Z,0.70
2023-05-10T11:39:33.914Z,0.80
2023-05-10T11:42:01.373Z,0.50
2023-05-10T11:44:32.932Z,1.00
2023-05-10T11:47:03.279Z,0.50
2023-05-10T11:49:30.429Z,0.70
2023-05-10T11:52:12.075Z,1.07
2023-05-10T11:54:39.040Z,0.77
2023-05-10T11:57:06.114Z,0.70
2023-05-10T11:59:33.175Z,0.37
2023-05-10T12:02:00.366Z,0.90
2023-05-10T12:04:30.608Z,0.90
2023-05-10T12:06:57.824Z,1.30
2023-05-10T12:09:35.912Z,0.97
2023-05-10T12:12:07.011Z,1.00
2023-05-10T12:14:36.687Z,1.00
2023-05-10T12:17:03.700Z,1.00
2023-05-10T12:19:38.605Z,0.90
2023-05-10T12:22:08.814Z,0.90
2023-05-10T12:24:41.588Z,0.83
2023-05-10T12:27:13.294Z,0.80
2023-05-10T12:29:45.477Z,0.90
2023-05-10T12:32:12.600Z,0.80
2023-05-10T12:34:39.849Z,0.90
2023-05-10T12:37:07.201Z,0.90
2023-05-10T12:39:43.293Z,1.37
2023-05-10T12:42:11.369Z,0.70
2023-05-10T12:44:38.514Z,1.00
2023-05-10T12:47:05.602Z,0.60
2023-05-10T12:49:32.605Z,0.83
2023-05-10T12:51:59.590Z,0.80
2023-05-10T12:54:26.818Z,0.80
2023-05-10T12:56:53.746Z,0.87
2023-05-10T12:59:20.751Z,0.77
2023-05-10T13:01:47.989Z,0.70
2023-05-10T13:04:15.030Z,0.83
2023-05-10T13:06:41.908Z,0.70
2023-05-10T13:09:08.883Z,0.83
2023-05-10T13:11:36.149Z,0.73
2023-05-10T13:14:04.345Z,1.07
2023-05-10T13:16:31.721Z,0.90
2023-05-10T13:18:59.546Z,0.97
2023-05-10T13:21:26.820Z,0.70
2023-05-10T13:23:54.445Z,0.60
2023-05-10T13:26:21.469Z,0.70
2023-05-10T13:28:49.865Z,0.80
2023-05-10T13:31:17.096Z,0.83
2023-05-10T13:33:44.185Z,0.53
2023-05-10T13:36:11.228Z,0.90
2023-05-10T13:38:38.618Z,1.00
2023-05-10T13:41:05.762Z,1.00
2023-05-10T13:43:32.653Z,0.83
2023-05-10T13:45:59.973Z,1.00
2023-05-10T13:48:27.731Z,0.70
2023-05-10T13:50:54.710Z,0.77
2023-05-10T13:53:21.923Z,1.10
2023-05-10T13:55:48.809Z,0.70
2023-05-10T13:58:15.671Z,0.80
2023-05-10T14:00:42.776Z,0.70
2023-05-10T14:03:12.435Z,0.90
2023-05-10T14:05:39.713Z,0.67
2023-05-10T14:08:06.793Z,0.80
2023-05-10T14:10:33.797Z,0.90
2023-05-10T14:13:00.930Z,0.90
2023-05-10T14:15:28.061Z,0.80
2023-05-10T14:17:55.162Z,0.80
2023-05-10T14:20:22.275Z,0.83
2023-05-10T14:22:49.591Z,1.00
2023-05-10T14:25:16.676Z,1.00
2023-05-10T14:27:44.191Z,1.30
2023-05-10T14:30:12.763Z,0.90
2023-05-10T14:32:39.730Z,0.80
2023-05-10T14:35:07.304Z,0.20
2023-05-10T14:37:34.427Z,0.20
2023-05-10T14:40:01.763Z,1.00
2023-05-10T14:42:29.519Z,0.70
2023-05-10T14:44:56.467Z,0.80
2023-05-10T14:47:23.607Z,0.60
2023-05-10T14:49:50.699Z,0.90
2023-05-10T14:52:18.383Z,1.00
2023-05-10T14:54:45.353Z,0.67
2023-05-10T14:57:12.373Z,0.47
2023-05-10T14:59:39.431Z,0.40
2023-05-10T15:02:09.203Z,0.50
2023-05-10T15:04:36.768Z,0.70
2023-05-10T15:07:04.366Z,0.50
2023-05-10T15:09:31.515Z,0.33
2023-05-10T15:11:58.555Z,0.50
2023-05-10T15:14:25.690Z,0.60
2023-05-10T15:16:52.714Z,0.77
2023-05-10T15:19:20.923Z,0.60
2023-05-10T15:21:48.314Z,0.60
2023-05-10T15:24:15.638Z,0.70
2023-05-10T15:26:42.580Z,0.60
2023-05-10T15:29:09.668Z,0.30
2023-05-10T15:31:36.862Z,0.63
2023-05-10T15:34:04.098Z,0.73
2023-05-10T15:36:33.145Z,0.73
2023-05-10T15:39:00.040Z,0.60
2023-05-10T15:41:26.967Z,0.60
2023-05-10T15:43:54.845Z,1.10
2023-05-10T15:46:22.686Z,0.40
2023-05-10T15:48:49.701Z,0.40
2023-05-10T15:51:16.650Z,0.70
2023-05-10T15:53:56.471Z,0.40
2023-05-10T15:56:30.895Z,0.33
2023-05-10T15:58:58.089Z,0.57
2023-05-10T16:01:25.872Z,0.40
2023-05-10T16:03:52.835Z,0.83
2023-05-10T16:06:20.013Z,0.30
2023-05-10T16:08:46.900Z,0.50
2023-05-10T16:11:14.994Z,0.70
2023-05-10T16:13:42.328Z,0.50
2023-05-10T16:16:09.532Z,0.20
2023-05-10T16:18:37.083Z,0.43
2023-05-10T16:21:04.333Z,0.50
2023-05-10T16:23:31.510Z,0.53
2023-05-10T16:25:58.463Z,0.43
2023-05-10T16:28:25.602Z,0.87
2023-05-10T16:30:52.929Z,0.50
2023-05-10T16:33:19.973Z,0.30
2023-05-10T16:35:46.880Z,0.80
2023-05-10T16:38:15.179Z,0.53
2023-05-10T16:40:42.409Z,0.20
2023-05-10T16:43:09.465Z,0.20
2023-05-10T16:45:36.415Z,0.70
2023-05-10T16:48:03.899Z,0.47
2023-05-10T16:50:31.033Z,0.20
2023-05-10T16:52:58.098Z,0.60
2023-05-10T16:55:26.354Z,0.30
2023-05-10T16:57:59.662Z,0.30
2023-05-10T17:00:29.935Z,0.63
2023-05-10T17:02:57.166Z,0.50
2023-05-10T17:05:24.429Z,0.27
2023-05-10T17:07:51.343Z,1.10
2023-05-10T17:10:18.425Z,0.20
2023-05-10T17:12:46.016Z,0.40
2023-05-10T17:15:13.120Z,0.33
2023-05-10T17:17:40.013Z,0.60
2023-05-10T17:20:07.868Z,0.20
2023-05-10T17:22:34.825Z,0.30
2023-05-10T17:25:01.889Z,0.40
2023-05-10T17:27:30.202Z,0.30
2023-05-10T17:29:57.604Z,0.30
2023-05-10T17:32:24.863Z,0.40
2023-05-10T17:34:51.862Z,0.20
2023-05-10T17:37:19.363Z,0.50
2023-05-10T17:39:46.574Z,0.30
2023-05-10T17:42:16.312Z,0.30
2023-05-10T17:44:43.952Z,0.60
2023-05-10T17:47:11.030Z,0.70
2023-05-10T17:49:37.976Z,0.60
2023-05-10T17:52:05.124Z,0.27
2023-05-10T17:54:32.196Z,0.43
2023-05-10T17:57:00.935Z,0.50
2023-05-10T17:59:28.395Z,0.20
2023-05-10T18:01:55.539Z,0.40
2023-05-10T18:04:22.420Z,0.73
2023-05-10T18:06:49.456Z,0.33
2023-05-10T18:09:17.871Z,0.23
2023-05-10T18:11:45.347Z,0.40
2023-05-10T18:14:12.345Z,0.40
2023-05-10T18:16:39.353Z,0.20
2023-05-10T18:19:06.536Z,0.50
2023-05-10T18:21:33.894Z,0.40
2023-05-10T18:24:01.511Z,0.23
2023-05-10T18:26:28.853Z,0.20
2023-05-10T18:28:55.854Z,0.30
2023-05-10T18:31:23.140Z,0.40
2023-05-10T18:33:50.132Z,0.30
2023-05-10T18:36:17.259Z,0.50
2023-05-10T18:38:44.998Z,0.60
2023-05-10T18:41:14.472Z,0.40
2023-05-10T18:43:42.759Z,0.70
2023-05-10T18:46:10.863Z,0.40
2023-05-10T18:48:38.784Z,0.50
2023-05-10T18:51:07.021Z,0.50
2023-05-10T18:53:33.961Z,0.50
2023-05-10T18:56:01.115Z,0.40
2023-05-10T18:58:29.103Z,0.40
2023-05-10T19:00:56.254Z,0.50
2023-05-10T19:03:23.288Z,0.30
2023-05-10T19:05:50.368Z,0.30
2023-05-10T19:08:18.139Z,0.50
2023-05-10T19:10:46.000Z,0.80
2023-05-10T19:13:20.352Z,0.70
2023-05-10T19:16:07.214Z,0.60
2023-05-10T19:18:34.853Z,0.50
2023-05-10T19:21:05.787Z,0.27
2023-05-10T19:23:33.688Z,0.67
2023-05-10T19:26:01.249Z,0.70
2023-05-10T19:28:28.290Z,0.67
2023-05-10T19:30:55.406Z,0.43
2023-05-10T19:33:22.468Z,0.60
2023-05-10T19:35:53.555Z,0.43
2023-05-10T19:38:24.304Z,0.50
2023-05-10T19:40:58.600Z,0.60
2023-05-10T19:43:27.021Z,0.90
2023-05-10T19:45:54.927Z,0.50
2023-05-10T19:48:21.806Z,1.03
2023-05-10T19:50:48.715Z,0.80
2023-05-10T19:53:15.697Z,0.47
2023-05-10T19:55:42.552Z,0.43
2023-05-10T19:58:09.534Z,0.70
2023-05-10T20:00:36.561Z,0.37
2023-05-10T20:03:07.008Z,0.50
2023-05-10T20:05:36.171Z,0.43
2023-05-10T20:08:03.243Z,0.97
2023-05-10T20:10:30.347Z,1.40
2023-05-10T20:12:58.682Z,1.20
2023-05-10T20:15:25.711Z,1.00
2023-05-10T20:17:55.564Z,1.10
2023-05-10T20:20:22.675Z,0.90
2023-05-10T20:22:50.476Z,1.33
2023-05-10T20:25:18.653Z,0.97
2023-05-10T20:27:45.680Z,0.87
2023-05-10T20:30:12.892Z,0.70
2023-05-10T20:32:39.817Z,0.40
2023-05-10T20:35:07.278Z,0.40
2023-05-10T20:37:34.502Z,0.50
2023-05-10T20:40:01.500Z,0.47
2023-05-10T20:42:28.420Z,0.53
2023-05-10T20:44:55.538Z,0.47
2023-05-10T20:47:25.797Z,0.50
2023-05-10T20:49:52.777Z,0.57
2023-05-10T20:52:19.597Z,0.47
2023-05-10T20:54:46.588Z,0.60
2023-05-10T20:57:13.511Z,0.60
2023-05-10T20:59:40.684Z,0.67
2023-05-10T21:02:08.080Z,0.53
2023-05-10T21:04:35.039Z,0.60
2023-05-10T21:07:01.972Z,0.57
2023-05-10T21:09:29.080Z,0.50
2023-05-10T21:11:56.113Z,0.70
2023-05-10T21:14:23.021Z,0.70
2023-05-10T21:16:51.242Z,0.80
2023-05-10T21:19:18.212Z,0.70
2023-05-10T21:21:45.240Z,0.80
2023-05-10T21:24:12.459Z,0.60
2023-05-10T21:26:39.490Z,0.80
2023-05-10T21:29:06.617Z,0.70
2023-05-10T21:31:33.735Z,0.80
2023-05-10T21:34:01.060Z,0.70
2023-05-10T21:36:28.172Z,1.03
2023-05-10T21:38:55.181Z,0.50
2023-05-10T21:41:22.056Z,0.77
2023-05-10T21:43:49.005Z,0.87
2023-05-10T21:46:15.880Z,1.00
2023-05-10T21:48:42.892Z,0.83
2023-05-10T21:51:09.929Z,0.70
2023-05-10T21:53:39.072Z,0.70
2023-05-10T21:56:07.235Z,0.90
2023-05-10T21:58:34.436Z,1.00
2023-05-10T22:01:04.336Z,0.87
2023-05-10T22:03:31.229Z,1.17
2023-05-10T22:05:58.291Z,0.97
2023-05-10T22:08:25.718Z,0.87
2023-05-10T22:10:52.697Z,0.90
2023-05-10T22:13:19.531Z,0.77
2023-05-10T22:15:46.453Z,1.00
2023-05-10T22:18:13.369Z,0.90
2023-05-10T22:20:40.252Z,0.80
2023-05-10T22:23:07.217Z,0.60
2023-05-10T22:25:34.198Z,0.63
2023-05-10T22:28:01.783Z,0.77
2023-05-10T22:30:30.467Z,1.00
2023-05-10T22:32:59.872Z,0.83
2023-05-10T22:35:27.045Z,0.90
2023-05-10T22:37:54.097Z,0.70
2023-05-10T22:40:21.548Z,0.60
2023-05-10T22:42:48.460Z,0.73
2023-05-10T22:45:15.423Z,0.50
2023-05-10T22:47:42.283Z,0.50
2023-05-10T22:50:09.870Z,0.60
2023-05-10T22:52:38.844Z,0.60
2023-05-10T22:55:07.058Z,0.70
2023-05-10T22:57:34.446Z,0.67
2023-05-10T23:00:02.289Z,0.63
2023-05-10T23:02:29.250Z,0.70
2023-05-10T23:04:56.152Z,0.60
2023-05-10T23:07:24.008Z,0.50
2023-05-10T23:09:50.954Z,0.70
2023-05-10T23:12:17.909Z,0.67
2023-05-10T23:14:46.521Z,0.60
2023-05-10T23:17:13.771Z,0.50
2023-05-10T23:19:40.701Z,0.90
2023-05-10T23:22:07.907Z,0.70
2023-05-10T23:24:34.747Z,0.57
2023-05-10T23:27:02.433Z,0.80
2023-05-10T23:29:29.249Z,0.50
2023-05-10T23:31:56.325Z,0.70
2023-05-10T23:34:23.120Z,0.90
2023-05-10T23:36:50.085Z,1.00
2023-05-10T23:39:17.336Z,0.60
2023-05-10T23:41:44.650Z,0.70
2023-05-10T23:44:11.597Z,0.73
2023-05-10T23:46:38.586Z,0.70
2023-05-10T23:49:05.704Z,0.83
2023-05-10T23:51:32.985Z,0.77
2023-05-10T23:54:00.286Z,0.80
2023-05-10T23:56:27.321Z,0.80
2023-05-10T23:58:54.232Z,0.70
